sensor_id;sensor_type;location;lat;lon;timestamp;P1;durP1;ratioP1;P2;durP2;ratioP2
17965;SDS011;9108;53.204;10.424;2022-08-21T08:32:11;6.40;;;1.50;;
17965;SDS011;9108;53.204;10.424;2022-08-21T08:34:38;4.90;;;1.30;;
17965;SDS011;9108;53.204;10.424;2022-08-21T08:37:06;2.85;;;1.30;;
17965;SDS011;9108;53.204;10.424;2022-08-21T08:39:33;5.87;;;1.20;;
17965;SDS011;9108;53.204;10.424;2022-08-21T08:42:04;5.53;;;1.63;;
17965;SDS011;9108;53.204;10.424;2022-08-21T08:44:32;3.87;;;1.30;;
17965;SDS011;9108;53.204;10.424;2022-08-21T08:46:59;2.53;;;1.10;;
17965;SDS011;9108;53.204;10.424;2022-08-21T08:49:30;4.67;;;1.17;;
17965;SDS011;9108;53.204;10.424;2022-08-21T08:52:00;2.93;;;1.03;;
17965;SDS011;9108;53.204;10.424;2022-08-21T08:54:28;4.20;;;1.10;;
17965;SDS011;9108;53.204;10.424;2022-08-21T08:57:01;5.27;;;1.20;;
17965;SDS011;9108;53.204;10.424;2022-08-21T08:59:32;3.77;;;1.13;;
17965;SDS011;9108;53.204;10.424;2022-08-21T09:02:03;5.10;;;1.30;;
17965;SDS011;9108;53.204;10.424;2022-08-21T09:04:32;2.35;;;1.17;;
17965;SDS011;9108;53.204;10.424;2022-08-21T09:07:05;5.03;;;1.60;;
17965;SDS011;9108;53.204;10.424;2022-08-21T09:09:40;5.13;;;1.20;;
17965;SDS011;9108;53.204;10.424;2022-08-21T09:12:14;4.53;;;1.50;;
17965;SDS011;9108;53.204;10.424;2022-08-21T09:14:45;4.53;;;1.37;;
17965;SDS011;9108;53.204;10.424;2022-08-21T09:17:17;5.63;;;1.77;;
17965;SDS011;9108;53.204;10.424;2022-08-21T09:19:52;5.10;;;1.30;;
17965;SDS011;9108;53.204;10.424;2022-08-21T09:22:23;5.27;;;1.20;;
17965;SDS011;9108;53.204;10.424;2022-08-21T09:24:58;7.03;;;1.47;;
17965;SDS011;9108;53.204;10.424;2022-08-21T09:27:27;5.73;;;1.27;;
17965;SDS011;9108;53.204;10.424;2022-08-21T09:29:55;8.23;;;1.57;;
17965;SDS011;9108;53.204;10.424;2022-08-21T09:32:24;6.77;;;1.70;;
17965;SDS011;9108;53.204;10.424;2022-08-21T09:34:57;2.83;;;1.20;;
17965;SDS011;9108;53.204;10.424;2022-08-21T09:37:24;3.70;;;1.23;;
17965;SDS011;9108;53.204;10.424;2022-08-21T09:39:52;3.53;;;1.10;;
17965;SDS011;9108;53.204;10.424;2022-08-21T09:42:23;6.40;;;1.53;;
17965;SDS011;9108;53.204;10.424;2022-08-21T09:47:35;3.75;;;1.23;;
17965;SDS011;9108;53.204;10.424;2022-08-21T09:50:12;6.55;;;1.52;;
17965;SDS011;9108;53.204;10.424;2022-08-21T09:52:43;4.53;;;1.30;;
17965;SDS011;9108;53.204;10.424;2022-08-21T09:55:15;6.30;;;1.63;;
17965;SDS011;9108;53.204;10.424;2022-08-21T09:58:03;3.97;;;1.20;;
17965;SDS011;9108;53.204;10.424;2022-08-21T10:00:30;6.45;;;1.75;;
17965;SDS011;9108;53.204;10.424;2022-08-21T10:03:07;7.53;;;1.73;;
17965;SDS011;9108;53.204;10.424;2022-08-21T10:05:36;4.22;;;1.17;;
17965;SDS011;9108;53.204;10.424;2022-08-21T10:08:04;3.42;;;1.15;;
17965;SDS011;9108;53.204;10.424;2022-08-21T10:10:31;4.30;;;1.30;;
17965;SDS011;9108;53.204;10.424;2022-08-21T10:13:03;6.07;;;1.40;;
17965;SDS011;9108;53.204;10.424;2022-08-21T10:15:35;7.32;;;1.45;;
17965;SDS011;9108;53.204;10.424;2022-08-21T10:18:07;6.75;;;1.50;;
17965;SDS011;9108;53.204;10.424;2022-08-21T10:20:40;8.00;;;1.40;;
17965;SDS011;9108;53.204;10.424;2022-08-21T10:23:13;4.93;;;1.67;;
17965;SDS011;9108;53.204;10.424;2022-08-21T10:25:44;6.55;;;1.55;;
17965;SDS011;9108;53.204;10.424;2022-08-21T10:28:16;8.77;;;1.50;;
17965;SDS011;9108;53.204;10.424;2022-08-21T10:30:46;6.50;;;1.50;;
17965;SDS011;9108;53.204;10.424;2022-08-21T10:33:19;6.18;;;1.52;;
17965;SDS011;9108;53.204;10.424;2022-08-21T10:35:50;5.32;;;1.70;;
17965;SDS011;9108;53.204;10.424;2022-08-21T10:38:31;3.92;;;1.50;;
17965;SDS011;9108;53.204;10.424;2022-08-21T10:41:04;4.30;;;1.40;;
17965;SDS011;9108;53.204;10.424;2022-08-21T10:43:36;6.32;;;1.50;;
17965;SDS011;9108;53.204;10.424;2022-08-21T10:46:11;4.28;;;1.65;;
17965;SDS011;9108;53.204;10.424;2022-08-21T10:48:42;4.13;;;1.60;;
17965;SDS011;9108;53.204;10.424;2022-08-21T10:51:16;6.90;;;1.80;;
17965;SDS011;9108;53.204;10.424;2022-08-21T10:53:47;6.47;;;1.90;;
17965;SDS011;9108;53.204;10.424;2022-08-21T10:56:18;7.50;;;1.90;;
17965;SDS011;9108;53.204;10.424;2022-08-21T10:58:49;6.80;;;1.50;;
17965;SDS011;9108;53.204;10.424;2022-08-21T11:01:17;4.13;;;1.47;;
17965;SDS011;9108;53.204;10.424;2022-08-21T11:03:47;6.10;;;1.75;;
17965;SDS011;9108;53.204;10.424;2022-08-21T11:06:19;3.75;;;1.58;;
17965;SDS011;9108;53.204;10.424;2022-08-21T11:08:48;5.00;;;1.40;;
17965;SDS011;9108;53.204;10.424;2022-08-21T11:11:19;4.47;;;1.60;;
17965;SDS011;9108;53.204;10.424;2022-08-21T11:13:48;7.10;;;1.75;;
17965;SDS011;9108;53.204;10.424;2022-08-21T11:16:18;4.85;;;1.70;;
17965;SDS011;9108;53.204;10.424;2022-08-21T11:18:50;3.83;;;1.63;;
17965;SDS011;9108;53.204;10.424;2022-08-21T11:21:27;6.10;;;1.52;;
17965;SDS011;9108;53.204;10.424;2022-08-21T11:23:59;3.25;;;1.50;;
17965;SDS011;9108;53.204;10.424;2022-08-21T11:26:30;6.78;;;1.60;;
17965;SDS011;9108;53.204;10.424;2022-08-21T11:29:01;6.57;;;1.60;;
17965;SDS011;9108;53.204;10.424;2022-08-21T11:31:34;4.78;;;1.40;;
17965;SDS011;9108;53.204;10.424;2022-08-21T11:34:09;4.73;;;1.40;;
17965;SDS011;9108;53.204;10.424;2022-08-21T11:36:42;4.80;;;1.13;;
17965;SDS011;9108;53.204;10.424;2022-08-21T11:39:14;3.08;;;1.30;;
17965;SDS011;9108;53.204;10.424;2022-08-21T11:41:46;6.63;;;1.65;;
17965;SDS011;9108;53.204;10.424;2022-08-21T11:44:17;10.00;;;1.40;;
17965;SDS011;9108;53.204;10.424;2022-08-21T11:46:47;6.53;;;1.55;;
17965;SDS011;9108;53.204;10.424;2022-08-21T11:49:25;3.67;;;1.33;;
17965;SDS011;9108;53.204;10.424;2022-08-21T11:51:59;4.67;;;1.50;;
17965;SDS011;9108;53.204;10.424;2022-08-21T11:54:31;3.17;;;1.00;;
17965;SDS011;9108;53.204;10.424;2022-08-21T11:57:02;5.00;;;1.30;;
17965;SDS011;9108;53.204;10.424;2022-08-21T11:59:32;3.33;;;1.20;;
17965;SDS011;9108;53.204;10.424;2022-08-21T12:02:01;4.63;;;1.30;;
17965;SDS011;9108;53.204;10.424;2022-08-21T12:04:30;4.23;;;1.33;;
17965;SDS011;9108;53.204;10.424;2022-08-21T12:07:10;3.92;;;1.50;;
17965;SDS011;9108;53.204;10.424;2022-08-21T12:09:38;3.55;;;1.10;;
17965;SDS011;9108;53.204;10.424;2022-08-21T12:12:06;3.40;;;1.00;;
17965;SDS011;9108;53.204;10.424;2022-08-21T12:14:37;2.85;;;1.00;;
17965;SDS011;9108;53.204;10.424;2022-08-21T12:17:05;3.15;;;1.10;;
17965;SDS011;9108;53.204;10.424;2022-08-21T12:19:32;3.17;;;1.13;;
17965;SDS011;9108;53.204;10.424;2022-08-21T12:22:09;4.55;;;1.27;;
17965;SDS011;9108;53.204;10.424;2022-08-21T12:24:39;2.95;;;1.13;;
17965;SDS011;9108;53.204;10.424;2022-08-21T12:27:14;3.67;;;1.10;;
17965;SDS011;9108;53.204;10.424;2022-08-21T12:29:47;2.60;;;1.00;;
17965;SDS011;9108;53.204;10.424;2022-08-21T12:32:23;2.93;;;1.00;;
17965;SDS011;9108;53.204;10.424;2022-08-21T12:34:52;2.20;;;0.90;;
17965;SDS011;9108;53.204;10.424;2022-08-21T12:37:21;3.58;;;1.10;;
17965;SDS011;9108;53.204;10.424;2022-08-21T12:39:51;4.07;;;1.30;;
17965;SDS011;9108;53.204;10.424;2022-08-21T12:42:20;3.80;;;1.05;;
17965;SDS011;9108;53.204;10.424;2022-08-21T12:44:50;2.27;;;0.90;;
17965;SDS011;9108;53.204;10.424;2022-08-21T12:47:21;1.85;;;1.02;;
17965;SDS011;9108;53.204;10.424;2022-08-21T12:49:53;2.57;;;1.00;;
17965;SDS011;9108;53.204;10.424;2022-08-21T12:52:23;2.88;;;0.82;;
17965;SDS011;9108;53.204;10.424;2022-08-21T12:54:54;2.10;;;0.93;;
17965;SDS011;9108;53.204;10.424;2022-08-21T12:57:21;2.92;;;1.10;;
17965;SDS011;9108;53.204;10.424;2022-08-21T12:59:53;2.70;;;1.05;;
17965;SDS011;9108;53.204;10.424;2022-08-21T13:02:20;2.10;;;0.90;;
17965;SDS011;9108;53.204;10.424;2022-08-21T13:04:49;3.13;;;1.20;;
17965;SDS011;9108;53.204;10.424;2022-08-21T13:07:27;3.28;;;1.20;;
17965;SDS011;9108;53.204;10.424;2022-08-21T13:09:57;3.30;;;1.08;;
17965;SDS011;9108;53.204;10.424;2022-08-21T13:12:25;2.38;;;0.88;;
17965;SDS011;9108;53.204;10.424;2022-08-21T13:14:55;3.95;;;1.15;;
17965;SDS011;9108;53.204;10.424;2022-08-21T13:17:23;3.78;;;1.10;;
17965;SDS011;9108;53.204;10.424;2022-08-21T13:19:56;2.88;;;0.93;;
17965;SDS011;9108;53.204;10.424;2022-08-21T13:22:24;3.50;;;1.10;;
17965;SDS011;9108;53.204;10.424;2022-08-21T13:24:52;3.03;;;1.00;;
17965;SDS011;9108;53.204;10.424;2022-08-21T13:27:22;3.67;;;1.08;;
17965;SDS011;9108;53.204;10.424;2022-08-21T13:29:59;2.60;;;1.10;;
17965;SDS011;9108;53.204;10.424;2022-08-21T13:32:27;2.22;;;0.80;;
17965;SDS011;9108;53.204;10.424;2022-08-21T13:34:57;3.17;;;0.80;;
17965;SDS011;9108;53.204;10.424;2022-08-21T13:37:24;3.03;;;1.00;;
17965;SDS011;9108;53.204;10.424;2022-08-21T13:39:54;3.50;;;0.90;;
17965;SDS011;9108;53.204;10.424;2022-08-21T13:42:22;3.05;;;0.90;;
17965;SDS011;9108;53.204;10.424;2022-08-21T13:44:50;3.78;;;0.90;;
17965;SDS011;9108;53.204;10.424;2022-08-21T13:47:19;2.40;;;1.00;;
17965;SDS011;9108;53.204;10.424;2022-08-21T13:49:46;2.28;;;0.93;;
17965;SDS011;9108;53.204;10.424;2022-08-21T13:52:15;4.18;;;1.10;;
17965;SDS011;9108;53.204;10.424;2022-08-21T13:54:43;2.50;;;0.90;;
17965;SDS011;9108;53.204;10.424;2022-08-21T13:57:17;1.87;;;0.80;;
17965;SDS011;9108;53.204;10.424;2022-08-21T13:59:46;4.97;;;1.00;;
17965;SDS011;9108;53.204;10.424;2022-08-21T14:02:16;5.13;;;0.90;;
17965;SDS011;9108;53.204;10.424;2022-08-21T14:04:50;3.08;;;0.85;;
17965;SDS011;9108;53.204;10.424;2022-08-21T14:07:19;3.03;;;1.10;;
17965;SDS011;9108;53.204;10.424;2022-08-21T14:09:47;3.33;;;0.93;;
17965;SDS011;9108;53.204;10.424;2022-08-21T14:12:16;1.90;;;0.80;;
17965;SDS011;9108;53.204;10.424;2022-08-21T14:14:44;3.60;;;0.90;;
17965;SDS011;9108;53.204;10.424;2022-08-21T14:17:26;3.97;;;1.10;;
17965;SDS011;9108;53.204;10.424;2022-08-21T14:19:54;4.22;;;1.00;;
17965;SDS011;9108;53.204;10.424;2022-08-21T14:22:21;3.85;;;1.00;;
17965;SDS011;9108;53.204;10.424;2022-08-21T14:24:49;4.55;;;1.15;;
17965;SDS011;9108;53.204;10.424;2022-08-21T14:27:17;4.75;;;1.17;;
17965;SDS011;9108;53.204;10.424;2022-08-21T14:29:45;5.60;;;1.02;;
17965;SDS011;9108;53.204;10.424;2022-08-21T14:32:22;4.43;;;1.00;;
17965;SDS011;9108;53.204;10.424;2022-08-21T14:34:53;2.20;;;1.00;;
17965;SDS011;9108;53.204;10.424;2022-08-21T14:37:21;5.60;;;1.10;;
17965;SDS011;9108;53.204;10.424;2022-08-21T14:39:48;3.78;;;1.10;;
17965;SDS011;9108;53.204;10.424;2022-08-21T14:42:15;5.28;;;1.30;;
17965;SDS011;9108;53.204;10.424;2022-08-21T14:44:43;4.10;;;1.00;;
17965;SDS011;9108;53.204;10.424;2022-08-21T14:47:19;3.90;;;1.10;;
17965;SDS011;9108;53.204;10.424;2022-08-21T14:49:47;4.45;;;1.30;;
17965;SDS011;9108;53.204;10.424;2022-08-21T14:52:15;4.47;;;1.17;;
17965;SDS011;9108;53.204;10.424;2022-08-21T14:54:44;3.20;;;1.10;;
17965;SDS011;9108;53.204;10.424;2022-08-21T14:57:14;3.45;;;1.10;;
17965;SDS011;9108;53.204;10.424;2022-08-21T14:59:41;4.63;;;1.20;;
17965;SDS011;9108;53.204;10.424;2022-08-21T15:02:08;3.90;;;1.40;;
17965;SDS011;9108;53.204;10.424;2022-08-21T15:04:38;3.83;;;1.20;;
17965;SDS011;9108;53.204;10.424;2022-08-21T15:07:09;6.47;;;1.30;;
17965;SDS011;9108;53.204;10.424;2022-08-21T15:12:37;3.23;;;1.10;;
17965;SDS011;9108;53.204;10.424;2022-08-21T15:15:21;4.50;;;1.10;;
17965;SDS011;9108;53.204;10.424;2022-08-21T15:17:53;3.40;;;1.08;;
17965;SDS011;9108;53.204;10.424;2022-08-21T15:20:37;3.80;;;1.07;;
17965;SDS011;9108;53.204;10.424;2022-08-21T15:23:06;3.97;;;1.13;;
17965;SDS011;9108;53.204;10.424;2022-08-21T15:25:39;3.50;;;1.13;;
17965;SDS011;9108;53.204;10.424;2022-08-21T15:28:07;5.05;;;1.20;;
17965;SDS011;9108;53.204;10.424;2022-08-21T15:30:37;3.40;;;1.10;;
17965;SDS011;9108;53.204;10.424;2022-08-21T15:33:05;3.47;;;1.17;;
17965;SDS011;9108;53.204;10.424;2022-08-21T15:35:33;3.90;;;1.30;;
17965;SDS011;9108;53.204;10.424;2022-08-21T15:38:02;2.63;;;1.10;;
17965;SDS011;9108;53.204;10.424;2022-08-21T15:40:29;3.83;;;1.20;;
17965;SDS011;9108;53.204;10.424;2022-08-21T15:43:00;3.45;;;1.17;;
17965;SDS011;9108;53.204;10.424;2022-08-21T15:48:10;3.05;;;1.20;;
17965;SDS011;9108;53.204;10.424;2022-08-21T15:50:54;4.63;;;1.40;;
17965;SDS011;9108;53.204;10.424;2022-08-21T15:53:26;6.35;;;2.40;;
17965;SDS011;9108;53.204;10.424;2022-08-21T15:55:53;4.20;;;1.30;;
17965;SDS011;9108;53.204;10.424;2022-08-21T15:58:25;3.53;;;1.30;;
17965;SDS011;9108;53.204;10.424;2022-08-21T16:00:56;2.75;;;1.20;;
17965;SDS011;9108;53.204;10.424;2022-08-21T16:03:25;4.30;;;1.40;;
17965;SDS011;9108;53.204;10.424;2022-08-21T16:05:53;5.00;;;1.60;;
17965;SDS011;9108;53.204;10.424;2022-08-21T16:08:22;21.80;;;11.40;;
17965;SDS011;9108;53.204;10.424;2022-08-21T16:10:51;4.38;;;1.95;;
17965;SDS011;9108;53.204;10.424;2022-08-21T16:13:22;3.28;;;1.17;;
17965;SDS011;9108;53.204;10.424;2022-08-21T16:15:50;4.10;;;1.10;;
17965;SDS011;9108;53.204;10.424;2022-08-21T16:18:18;4.25;;;1.30;;
17965;SDS011;9108;53.204;10.424;2022-08-21T16:20:47;3.50;;;1.03;;
17965;SDS011;9108;53.204;10.424;2022-08-21T16:23:14;2.97;;;1.20;;
17965;SDS011;9108;53.204;10.424;2022-08-21T16:25:41;2.30;;;1.08;;
17965;SDS011;9108;53.204;10.424;2022-08-21T16:28:10;4.28;;;1.17;;
17965;SDS011;9108;53.204;10.424;2022-08-21T16:30:38;3.63;;;1.10;;
17965;SDS011;9108;53.204;10.424;2022-08-21T16:33:10;2.53;;;1.00;;
17965;SDS011;9108;53.204;10.424;2022-08-21T16:35:39;4.38;;;1.10;;
17965;SDS011;9108;53.204;10.424;2022-08-21T16:38:09;4.50;;;1.33;;
17965;SDS011;9108;53.204;10.424;2022-08-21T16:40:36;2.83;;;1.02;;
17965;SDS011;9108;53.204;10.424;2022-08-21T16:43:03;3.07;;;1.27;;
17965;SDS011;9108;53.204;10.424;2022-08-21T18:27:33;4.30;;;1.50;;
17965;SDS011;9108;53.204;10.424;2022-08-21T18:30:04;3.35;;;1.50;;
17965;SDS011;9108;53.204;10.424;2022-08-21T18:32:31;5.75;;;1.55;;
17965;SDS011;9108;53.204;10.424;2022-08-21T18:34:59;3.92;;;1.38;;
17965;SDS011;9108;53.204;10.424;2022-08-21T18:37:27;4.00;;;1.52;;
17965;SDS011;9108;53.204;10.424;2022-08-21T18:39:55;3.72;;;1.33;;
17965;SDS011;9108;53.204;10.424;2022-08-21T18:42:22;2.90;;;1.40;;
17965;SDS011;9108;53.204;10.424;2022-08-21T18:44:51;4.57;;;1.58;;
17965;SDS011;9108;53.204;10.424;2022-08-21T18:47:21;3.97;;;1.58;;
17965;SDS011;9108;53.204;10.424;2022-08-21T18:49:49;4.25;;;1.50;;
17965;SDS011;9108;53.204;10.424;2022-08-21T18:52:17;2.60;;;1.40;;
17965;SDS011;9108;53.204;10.424;2022-08-21T18:54:44;4.90;;;1.50;;
17965;SDS011;9108;53.204;10.424;2022-08-21T18:57:11;4.68;;;1.50;;
17965;SDS011;9108;53.204;10.424;2022-08-21T18:59:38;3.03;;;1.30;;
17965;SDS011;9108;53.204;10.424;2022-08-21T19:02:08;3.38;;;1.50;;
17965;SDS011;9108;53.204;10.424;2022-08-21T19:04:36;5.88;;;1.60;;
17965;SDS011;9108;53.204;10.424;2022-08-21T19:07:03;3.63;;;1.60;;
17965;SDS011;9108;53.204;10.424;2022-08-21T19:09:30;3.95;;;1.60;;
17965;SDS011;9108;53.204;10.424;2022-08-21T19:11:57;4.28;;;1.80;;
17965;SDS011;9108;53.204;10.424;2022-08-21T19:14:27;4.75;;;1.70;;
17965;SDS011;9108;53.204;10.424;2022-08-21T19:16:54;5.25;;;1.95;;
17965;SDS011;9108;53.204;10.424;2022-08-21T19:19:23;4.13;;;1.60;;
17965;SDS011;9108;53.204;10.424;2022-08-21T19:21:51;4.97;;;1.90;;
17965;SDS011;9108;53.204;10.424;2022-08-21T19:24:18;3.05;;;1.70;;
17965;SDS011;9108;53.204;10.424;2022-08-21T19:26:45;4.88;;;1.92;;
17965;SDS011;9108;53.204;10.424;2022-08-21T19:29:12;5.67;;;1.87;;
17965;SDS011;9108;53.204;10.424;2022-08-21T19:31:41;4.18;;;1.90;;
17965;SDS011;9108;53.204;10.424;2022-08-21T19:34:10;6.07;;;1.90;;
17965;SDS011;9108;53.204;10.424;2022-08-21T19:36:39;4.13;;;1.93;;
17965;SDS011;9108;53.204;10.424;2022-08-21T19:39:07;5.32;;;1.90;;
17965;SDS011;9108;53.204;10.424;2022-08-21T19:41:35;4.88;;;2.25;;
17965;SDS011;9108;53.204;10.424;2022-08-21T19:44:05;4.22;;;2.20;;
17965;SDS011;9108;53.204;10.424;2022-08-21T19:46:34;4.88;;;2.20;;
17965;SDS011;9108;53.204;10.424;2022-08-21T19:49:03;6.25;;;2.15;;
17965;SDS011;9108;53.204;10.424;2022-08-21T19:51:31;4.45;;;2.35;;
17965;SDS011;9108;53.204;10.424;2022-08-21T19:54:00;4.20;;;2.20;;
17965;SDS011;9108;53.204;10.424;2022-08-21T19:56:28;6.15;;;2.67;;
17965;SDS011;9108;53.204;10.424;2022-08-21T19:58:57;5.82;;;2.38;;
17965;SDS011;9108;53.204;10.424;2022-08-21T20:01:24;5.18;;;2.47;;
17965;SDS011;9108;53.204;10.424;2022-08-21T20:03:52;7.15;;;2.50;;
17965;SDS011;9108;53.204;10.424;2022-08-21T20:06:20;4.68;;;2.15;;
17965;SDS011;9108;53.204;10.424;2022-08-21T20:08:48;5.55;;;2.30;;
17965;SDS011;9108;53.204;10.424;2022-08-21T20:11:18;3.10;;;2.03;;
17965;SDS011;9108;53.204;10.424;2022-08-21T20:13:45;6.63;;;2.20;;
17965;SDS011;9108;53.204;10.424;2022-08-21T20:16:13;4.68;;;2.13;;
17965;SDS011;9108;53.204;10.424;2022-08-21T20:18:41;5.70;;;2.10;;
17965;SDS011;9108;53.204;10.424;2022-08-21T20:21:08;4.85;;;2.10;;
17965;SDS011;9108;53.204;10.424;2022-08-21T20:23:37;5.00;;;2.10;;
17965;SDS011;9108;53.204;10.424;2022-08-21T20:26:04;5.35;;;1.80;;
17965;SDS011;9108;53.204;10.424;2022-08-21T20:28:34;5.65;;;1.88;;
17965;SDS011;9108;53.204;10.424;2022-08-21T20:31:01;7.53;;;2.05;;
17965;SDS011;9108;53.204;10.424;2022-08-21T20:33:29;4.22;;;1.80;;
17965;SDS011;9108;53.204;10.424;2022-08-21T20:35:56;6.63;;;2.10;;
17965;SDS011;9108;53.204;10.424;2022-08-21T20:38:23;4.47;;;1.80;;
17965;SDS011;9108;53.204;10.424;2022-08-21T20:40:51;5.38;;;2.05;;
17965;SDS011;9108;53.204;10.424;2022-08-21T20:43:18;6.30;;;2.03;;
17965;SDS011;9108;53.204;10.424;2022-08-21T20:45:47;6.07;;;2.15;;
17965;SDS011;9108;53.204;10.424;2022-08-21T20:48:15;6.18;;;2.60;;
17965;SDS011;9108;53.204;10.424;2022-08-21T20:50:45;5.45;;;2.60;;
17965;SDS011;9108;53.204;10.424;2022-08-21T20:53:13;5.70;;;2.33;;
17965;SDS011;9108;53.204;10.424;2022-08-21T20:55:43;6.75;;;2.50;;
17965;SDS011;9108;53.204;10.424;2022-08-21T20:58:14;5.77;;;2.73;;
17965;SDS011;9108;53.204;10.424;2022-08-21T21:00:43;6.85;;;2.70;;
17965;SDS011;9108;53.204;10.424;2022-08-21T21:03:13;6.18;;;2.60;;
17965;SDS011;9108;53.204;10.424;2022-08-21T21:05:42;7.07;;;2.70;;
17965;SDS011;9108;53.204;10.424;2022-08-21T21:08:11;5.07;;;2.70;;
17965;SDS011;9108;53.204;10.424;2022-08-21T21:10:41;4.97;;;2.40;;
17965;SDS011;9108;53.204;10.424;2022-08-21T21:13:16;6.90;;;2.65;;
17965;SDS011;9108;53.204;10.424;2022-08-21T21:15:45;6.40;;;2.38;;
17965;SDS011;9108;53.204;10.424;2022-08-21T21:18:16;6.05;;;2.60;;
17965;SDS011;9108;53.204;10.424;2022-08-21T21:20:46;5.43;;;2.60;;
17965;SDS011;9108;53.204;10.424;2022-08-21T21:23:19;6.03;;;2.50;;
17965;SDS011;9108;53.204;10.424;2022-08-21T21:25:49;5.65;;;2.50;;
17965;SDS011;9108;53.204;10.424;2022-08-21T21:28:18;5.80;;;2.60;;
17965;SDS011;9108;53.204;10.424;2022-08-21T21:30:48;4.78;;;2.60;;
17965;SDS011;9108;53.204;10.424;2022-08-21T21:33:16;5.55;;;2.42;;
17965;SDS011;9108;53.204;10.424;2022-08-21T21:35:46;4.95;;;2.58;;
17965;SDS011;9108;53.204;10.424;2022-08-21T21:38:16;6.43;;;2.40;;
17965;SDS011;9108;53.204;10.424;2022-08-21T21:40:47;6.32;;;2.58;;
17965;SDS011;9108;53.204;10.424;2022-08-21T21:43:19;5.93;;;2.50;;
17965;SDS011;9108;53.204;10.424;2022-08-21T21:45:54;4.95;;;2.70;;
17965;SDS011;9108;53.204;10.424;2022-08-21T21:48:29;5.72;;;2.47;;
17965;SDS011;9108;53.204;10.424;2022-08-21T21:50:58;6.70;;;2.40;;
17965;SDS011;9108;53.204;10.424;2022-08-21T21:53:35;4.68;;;2.30;;
17965;SDS011;9108;53.204;10.424;2022-08-21T21:56:06;8.13;;;2.90;;
17965;SDS011;9108;53.204;10.424;2022-08-21T21:58:41;5.80;;;2.60;;
17965;SDS011;9108;53.204;10.424;2022-08-21T22:01:11;5.20;;;2.50;;
17965;SDS011;9108;53.204;10.424;2022-08-21T22:03:44;5.07;;;2.65;;
17965;SDS011;9108;53.204;10.424;2022-08-21T22:06:15;6.57;;;2.60;;
17965;SDS011;9108;53.204;10.424;2022-08-21T22:08:44;4.33;;;2.60;;
17965;SDS011;9108;53.204;10.424;2022-08-21T22:11:20;4.63;;;2.50;;
17965;SDS011;9108;53.204;10.424;2022-08-21T22:13:53;5.53;;;2.88;;
17965;SDS011;9108;53.204;10.424;2022-08-21T22:16:22;5.43;;;2.83;;
17965;SDS011;9108;53.204;10.424;2022-08-21T22:18:53;4.97;;;2.60;;
17965;SDS011;9108;53.204;10.424;2022-08-21T22:21:23;6.65;;;2.55;;
17965;SDS011;9108;53.204;10.424;2022-08-21T22:23:54;5.40;;;2.85;;
17965;SDS011;9108;53.204;10.424;2022-08-21T22:26:24;7.18;;;2.80;;
17965;SDS011;9108;53.204;10.424;2022-08-21T22:28:53;5.70;;;2.80;;
17965;SDS011;9108;53.204;10.424;2022-08-21T22:31:21;5.30;;;2.60;;
17965;SDS011;9108;53.204;10.424;2022-08-21T22:34:05;6.38;;;2.70;;
17965;SDS011;9108;53.204;10.424;2022-08-21T22:36:33;4.65;;;2.60;;
17965;SDS011;9108;53.204;10.424;2022-08-21T22:39:02;6.68;;;2.78;;
17965;SDS011;9108;53.204;10.424;2022-08-21T22:41:30;7.32;;;3.17;;
17965;SDS011;9108;53.204;10.424;2022-08-21T22:43:58;5.72;;;3.00;;
17965;SDS011;9108;53.204;10.424;2022-08-21T22:46:27;6.32;;;3.38;;
17965;SDS011;9108;53.204;10.424;2022-08-21T22:48:56;5.50;;;3.20;;
17965;SDS011;9108;53.204;10.424;2022-08-21T22:51:29;8.68;;;3.33;;
17965;SDS011;9108;53.204;10.424;2022-08-21T22:53:57;5.30;;;3.27;;
17965;SDS011;9108;53.204;10.424;2022-08-21T22:56:26;4.60;;;2.90;;
17965;SDS011;9108;53.204;10.424;2022-08-21T22:58:56;7.70;;;3.00;;
17965;SDS011;9108;53.204;10.424;2022-08-21T23:01:30;7.43;;;3.17;;
17965;SDS011;9108;53.204;10.424;2022-08-21T23:03:58;6.32;;;3.22;;
17965;SDS011;9108;53.204;10.424;2022-08-21T23:06:41;5.95;;;3.50;;
17965;SDS011;9108;53.204;10.424;2022-08-21T23:09:13;6.97;;;3.13;;
17965;SDS011;9108;53.204;10.424;2022-08-21T23:11:43;5.70;;;3.20;;
17965;SDS011;9108;53.204;10.424;2022-08-21T23:14:11;6.72;;;3.20;;
17965;SDS011;9108;53.204;10.424;2022-08-21T23:16:42;4.30;;;2.83;;
17965;SDS011;9108;53.204;10.424;2022-08-21T23:19:14;5.75;;;3.05;;
17965;SDS011;9108;53.204;10.424;2022-08-21T23:21:46;6.50;;;3.37;;
17965;SDS011;9108;53.204;10.424;2022-08-21T23:27:05;6.75;;;2.85;;
17965;SDS011;9108;53.204;10.424;2022-08-21T23:29:37;5.75;;;2.97;;
17965;SDS011;9108;53.204;10.424;2022-08-21T23:32:10;5.47;;;3.17;;
17965;SDS011;9108;53.204;10.424;2022-08-21T23:34:44;6.43;;;3.00;;
17965;SDS011;9108;53.204;10.424;2022-08-21T23:37:21;10.10;;;3.10;;
17965;SDS011;9108;53.204;10.424;2022-08-21T23:40:11;6.15;;;3.00;;
17965;SDS011;9108;53.204;10.424;2022-08-21T23:42:45;6.30;;;3.00;;
17965;SDS011;9108;53.204;10.424;2022-08-21T23:45:16;5.78;;;3.20;;
17965;SDS011;9108;53.204;10.424;2022-08-21T23:47:48;6.25;;;3.10;;
17965;SDS011;9108;53.204;10.424;2022-08-21T23:50:21;9.30;;;3.13;;
17965;SDS011;9108;53.204;10.424;2022-08-21T23:52:55;6.57;;;3.58;;
17965;SDS011;9108;53.204;10.424;2022-08-21T23:55:37;7.13;;;3.22;;
17965;SDS011;9108;53.204;10.424;2022-08-21T23:58:14;6.40;;;3.00;;
